Time;durP1;ratioP1;P1;durP2;ratioP2;P2;SDS_P1;SDS_P2;PMS_P1;PMS_P2;Temp;Humidity;BMP_temperature;BMP_pressure;BME280_temperature;BME280_humidity;BME280_pressure;Samples;Min_cycle;Max_cycle;Signal;HPM_P1;HPM_P2
2020/12/27 00:01:41;;;;;;;23.08;12.02;;;-5.40;99.90;;;;;;5068588;28;20060;-77
2020/12/27 00:04:07;;;;;;;17.20;9.80;;;-5.40;99.90;;;;;;5068465;28;20025;-77
2020/12/27 00:06:32;;;;;;;21.02;11.73;;;-5.40;99.90;;;;;;5053213;28;20028;-77
2020/12/27 00:08:58;;;;;;;17.48;9.95;;;-5.50;99.90;;;;;;5059386;28;20087;-77
2020/12/27 00:11:24;;;;;;;19.15;10.98;;;-5.50;99.90;;;;;;5059473;28;20047;-77
2020/12/27 00:13:50;;;;;;;22.35;11.98;;;-5.50;99.90;;;;;;5074947;28;20483;-77
2020/12/27 00:16:22;;;;;;;22.67;10.93;;;-5.50;99.90;;;;;;5075026;28;20017;-77
2020/12/27 00:18:47;;;;;;;16.90;10.30;;;-5.50;99.90;;;;;;5075099;28;20025;-77
2020/12/27 00:21:13;;;;;;;19.67;10.73;;;-5.50;99.90;;;;;;5058253;28;20091;-77
2020/12/27 00:23:38;;;;;;;19.73;11.18;;;-5.50;99.90;;;;;;5058204;28;20162;-77
2020/12/27 00:26:11;;;;;;;24.77;11.20;;;-5.50;99.90;;;;;;5059744;28;20039;-77
2020/12/27 00:28:37;;;;;;;23.45;12.02;;;-5.40;99.90;;;;;;5059518;28;20108;-77
2020/12/27 00:31:02;;;;;;;18.33;10.00;;;-5.40;99.90;;;;;;5075055;28;20117;-77
2020/12/27 00:33:28;;;;;;;18.00;10.02;;;-5.50;99.90;;;;;;5074939;28;20553;-77
2020/12/27 00:35:53;;;;;;;18.65;10.25;;;-5.50;99.90;;;;;;5058389;28;20021;-77
2020/12/27 00:38:19;;;;;;;18.90;11.38;;;-5.50;99.90;;;;;;5074969;28;20051;-77
2020/12/27 00:40:44;;;;;;;17.98;10.25;;;-5.50;99.90;;;;;;5074896;28;20073;-77
2020/12/27 00:43:10;;;;;;;19.35;10.52;;;-5.50;99.90;;;;;;5057825;28;20120;-77
2020/12/27 00:45:35;;;;;;;19.95;10.35;;;-5.50;99.90;;;;;;5074678;28;20052;-77
2020/12/27 00:48:01;;;;;;;18.92;10.45;;;-5.40;99.90;;;;;;5074682;28;20090;-77
2020/12/27 00:50:27;;;;;;;22.33;10.48;;;-5.30;99.90;;;;;;5059124;28;20481;-77
2020/12/27 00:52:53;;;;;;;18.75;10.15;;;-5.20;99.90;;;;;;5057856;28;20368;-77
2020/12/27 00:55:18;;;;;;;20.27;11.27;;;-5.20;99.90;;;;;;5057923;28;20364;-77
2020/12/27 00:57:44;;;;;;;20.52;10.98;;;-5.10;99.90;;;;;;5057921;28;20013;-77
2020/12/27 01:00:10;;;;;;;22.83;11.70;;;-5.10;99.90;;;;;;5074411;28;20021;-76
2020/12/27 01:02:35;;;;;;;21.00;11.10;;;-5.10;99.90;;;;;;5059104;28;20043;-77
2020/12/27 01:05:01;;;;;;;19.23;10.93;;;-5.10;99.90;;;;;;5074489;28;20091;-77
2020/12/27 01:07:26;;;;;;;22.77;11.68;;;-5.00;99.90;;;;;;5058881;28;20017;-77
2020/12/27 01:09:52;;;;;;;21.80;12.65;;;-5.00;99.90;;;;;;5057686;28;20025;-77
2020/12/27 01:12:17;;;;;;;20.23;12.50;;;-4.90;99.90;;;;;;5059076;28;20025;-76
2020/12/27 01:14:43;;;;;;;23.58;12.40;;;-4.90;99.90;;;;;;5059014;28;20025;-77
2020/12/27 01:17:08;;;;;;;18.15;11.50;;;-4.90;99.90;;;;;;5057609;28;20021;-77
2020/12/27 01:19:34;;;;;;;18.48;10.73;;;-4.90;99.90;;;;;;5055715;28;20021;-77
2020/12/27 01:21:59;;;;;;;19.13;10.18;;;-5.00;99.90;;;;;;5055699;28;20025;-77
2020/12/27 01:24:25;;;;;;;18.65;10.57;;;-5.10;99.90;;;;;;5071115;28;20174;-77
2020/12/27 01:26:50;;;;;;;20.08;10.00;;;-5.20;99.90;;;;;;5055862;28;20036;-77
2020/12/27 01:29:16;;;;;;;17.83;9.88;;;-5.30;99.90;;;;;;5056298;28;20029;-77
2020/12/27 01:31:41;;;;;;;17.92;9.85;;;-5.30;99.90;;;;;;5055507;28;20032;-76
2020/12/27 01:34:07;;;;;;;21.45;10.43;;;-5.40;99.90;;;;;;5071538;28;20021;-76
2020/12/27 01:36:34;;;;;;;18.05;9.82;;;-5.50;99.90;;;;;;5056391;28;20387;-77
2020/12/27 01:39:08;;;;;;;18.35;10.48;;;-5.50;99.90;;;;;;5056169;28;20078;-77
2020/12/27 01:41:34;;;;;;;22.05;10.55;;;-5.50;99.90;;;;;;5071269;28;20025;-76
2020/12/27 01:44:14;;;;;;;16.73;9.50;;;-5.60;99.90;;;;;;5055768;28;20507;-76
2020/12/27 01:46:42;;;;;;;20.70;10.25;;;-5.60;99.90;;;;;;5055334;28;20056;-76
2020/12/27 01:49:09;;;;;;;19.67;10.02;;;-5.60;99.90;;;;;;5070720;28;20027;-75
2020/12/27 01:51:35;;;;;;;19.73;10.52;;;-5.70;99.90;;;;;;5055275;28;20108;-76
2020/12/27 01:54:02;;;;;;;18.50;9.52;;;-5.70;99.90;;;;;;5055979;28;20045;-76
2020/12/27 01:56:42;;;;;;;16.13;8.80;;;-5.80;99.90;;;;;;5055747;28;20083;-78
2020/12/27 01:59:31;;;;;;;13.90;9.20;;;-5.80;99.90;;;;;;5055505;28;20017;-76
2020/12/27 02:01:58;;;;;;;16.15;9.65;;;-5.90;99.90;;;;;;5070757;28;20025;-76
2020/12/27 02:04:25;;;;;;;18.27;8.43;;;-5.90;99.90;;;;;;5055481;28;20083;-77
2020/12/27 02:06:51;;;;;;;17.70;9.50;;;-6.00;99.90;;;;;;5070581;28;20117;-76
2020/12/27 02:09:17;;;;;;;13.50;9.00;;;-5.90;99.90;;;;;;5070424;28;20033;-77
2020/12/27 02:11:43;;;;;;;16.00;9.27;;;-6.00;99.90;;;;;;5055105;28;20532;-77
2020/12/27 02:14:08;;;;;;;16.75;9.65;;;-6.00;99.90;;;;;;5070367;28;20070;-77
2020/12/27 02:16:35;;;;;;;14.45;9.20;;;-6.10;99.90;;;;;;5070355;28;20066;-77
2020/12/27 02:19:05;;;;;;;20.80;9.25;;;-6.10;99.90;;;;;;5070617;28;20025;-77
2020/12/27 02:21:30;;;;;;;17.40;10.20;;;-6.20;99.90;;;;;;5070357;28;20029;-77
2020/12/27 02:23:57;;;;;;;19.20;9.68;;;-6.10;99.90;;;;;;5053551;28;20029;-76
2020/12/27 02:26:24;;;;;;;17.48;9.50;;;-6.10;99.90;;;;;;5055078;28;20100;-77
2020/12/27 02:28:50;;;;;;;18.13;11.05;;;-6.10;99.90;;;;;;5054811;28;20105;-77
2020/12/27 02:31:15;;;;;;;22.63;12.35;;;-6.10;99.90;;;;;;5054328;28;20155;-77
2020/12/27 02:33:41;;;;;;;23.45;11.65;;;-6.00;99.90;;;;;;5053109;28;20029;-77
2020/12/27 02:36:11;;;;;;;18.90;10.30;;;-6.00;99.90;;;;;;5053096;28;20017;-77
2020/12/27 02:38:36;;;;;;;16.67;10.20;;;-6.00;99.90;;;;;;5054361;28;20067;-77
2020/12/27 02:41:02;;;;;;;18.80;10.38;;;-6.00;99.90;;;;;;5052734;28;20029;-76
2020/12/27 02:43:27;;;;;;;17.27;9.77;;;-6.10;99.90;;;;;;5069404;28;20033;-77
2020/12/27 02:45:53;;;;;;;15.55;8.80;;;-6.10;99.90;;;;;;5069719;28;20029;-77
2020/12/27 02:48:19;;;;;;;12.25;8.27;;;-6.10;99.90;;;;;;5069377;28;20403;-77
2020/12/27 02:50:44;;;;;;;18.33;9.52;;;-6.20;99.90;;;;;;5069368;28;20029;-77
2020/12/27 02:53:10;;;;;;;16.85;9.80;;;-6.20;99.90;;;;;;5069468;28;20157;-77
2020/12/27 02:55:35;;;;;;;16.75;8.95;;;-6.20;99.90;;;;;;5054297;28;20071;-77
2020/12/27 02:58:01;;;;;;;16.27;9.10;;;-6.30;99.90;;;;;;5069629;28;20052;-77
2020/12/27 03:00:29;;;;;;;18.23;9.98;;;-6.30;99.90;;;;;;5069393;28;20021;-77
2020/12/27 03:02:56;;;;;;;16.77;9.82;;;-6.40;99.90;;;;;;5070127;28;20396;-77
2020/12/27 03:05:22;;;;;;;16.67;8.30;;;-6.40;99.90;;;;;;5069914;28;20025;-77
2020/12/27 03:07:48;;;;;;;15.65;9.15;;;-6.40;99.90;;;;;;5069664;28;20024;-77
2020/12/27 03:10:13;;;;;;;18.33;10.07;;;-6.40;99.90;;;;;;5053872;28;20032;-77
2020/12/27 03:12:39;;;;;;;16.42;10.15;;;-6.30;99.90;;;;;;5069655;28;20029;-77
2020/12/27 03:15:05;;;;;;;21.02;10.60;;;-6.30;99.90;;;;;;5053113;28;20023;-77
2020/12/27 03:17:30;;;;;;;16.38;9.50;;;-6.20;99.90;;;;;;5053046;28;20541;-77
2020/12/27 03:19:56;;;;;;;19.45;9.60;;;-6.20;99.90;;;;;;5069751;28;20507;-77
2020/12/27 03:22:21;;;;;;;17.50;9.43;;;-6.20;99.90;;;;;;5054063;28;20052;-77
2020/12/27 03:24:47;;;;;;;14.80;9.40;;;-6.20;99.90;;;;;;5052795;28;20454;-77
2020/12/27 03:27:12;;;;;;;18.88;10.32;;;-6.30;99.90;;;;;;5053849;28;20021;-77
2020/12/27 03:29:38;;;;;;;19.83;9.50;;;-6.20;99.90;;;;;;5052963;28;20048;-77
2020/12/27 03:32:03;;;;;;;14.43;8.90;;;-6.20;99.90;;;;;;5068715;28;20480;-77
2020/12/27 03:34:29;;;;;;;17.85;9.35;;;-6.10;99.90;;;;;;5068542;28;20029;-77
2020/12/27 03:36:54;;;;;;;16.92;10.15;;;-6.10;99.90;;;;;;5053154;28;20549;-77
2020/12/27 03:39:20;;;;;;;18.23;9.95;;;-6.10;99.90;;;;;;5053170;28;20027;-77
2020/12/27 03:41:45;;;;;;;14.93;9.18;;;-6.10;99.90;;;;;;5068017;28;20036;-77
2020/12/27 03:44:11;;;;;;;15.82;8.48;;;-6.20;99.90;;;;;;5084964;23;20488;-75
2020/12/27 03:46:37;;;;;;;16.13;9.38;;;-6.20;99.90;;;;;;5031677;28;20029;-75
2020/12/27 03:49:02;;;;;;;15.65;9.60;;;-6.30;99.90;;;;;;5033425;28;20049;-75
2020/12/27 03:51:28;;;;;;;15.10;8.38;;;-6.30;99.90;;;;;;5033024;28;20492;-76
2020/12/27 03:53:53;;;;;;;12.82;8.02;;;-6.40;99.90;;;;;;5048145;28;20028;-75
2020/12/27 03:56:22;;;;;;;18.42;9.93;;;-6.40;99.90;;;;;;5031587;28;20013;-75
2020/12/27 03:58:48;;;;;;;17.10;8.90;;;-6.40;99.90;;;;;;5032822;28;20021;-74
2020/12/27 04:01:13;;;;;;;17.58;9.20;;;-6.40;99.90;;;;;;5032790;28;20048;-75
2020/12/27 04:03:39;;;;;;;18.15;9.35;;;-6.50;99.90;;;;;;5031414;28;20022;-75
2020/12/27 04:06:04;;;;;;;15.57;8.55;;;-6.50;99.90;;;;;;5031497;28;20025;-75
2020/12/27 04:08:30;;;;;;;18.73;9.60;;;-6.50;99.90;;;;;;5032582;28;20404;-75
2020/12/27 04:10:55;;;;;;;19.83;9.57;;;-6.50;99.90;;;;;;5033112;28;20033;-75
2020/12/27 04:13:22;;;;;;;19.80;9.77;;;-6.50;99.90;;;;;;5047880;28;20508;-75
2020/12/27 04:15:48;;;;;;;17.02;9.18;;;-6.50;99.90;;;;;;5031344;28;20116;-74
2020/12/27 04:18:13;;;;;;;21.48;9.82;;;-6.50;99.90;;;;;;5047942;28;20029;-75
2020/12/27 04:20:39;;;;;;;17.00;9.25;;;-6.40;99.90;;;;;;5032561;28;20037;-75
2020/12/27 04:23:04;;;;;;;17.35;10.35;;;-6.30;99.90;;;;;;5032513;28;20029;-76
2020/12/27 04:25:30;;;;;;;19.58;10.50;;;-6.30;99.90;;;;;;5032595;28;20041;-74
2020/12/27 04:27:55;;;;;;;17.35;9.25;;;-6.30;99.90;;;;;;5032776;28;20025;-75
2020/12/27 04:30:21;;;;;;;17.85;9.73;;;-6.30;99.90;;;;;;5032390;28;20030;-75
2020/12/27 04:32:47;;;;;;;15.23;9.55;;;-6.30;99.90;;;;;;5032410;28;20104;-75
2020/12/27 04:35:12;;;;;;;18.13;9.88;;;-6.20;99.90;;;;;;5031113;28;20053;-74
2020/12/27 04:37:38;;;;;;;18.00;10.38;;;-6.30;99.90;;;;;;5032489;28;20025;-75
2020/12/27 04:40:05;;;;;;;17.13;9.75;;;-6.30;99.90;;;;;;5032424;28;20033;-74
2020/12/27 04:42:31;;;;;;;14.38;8.80;;;-6.30;99.90;;;;;;5032530;28;20037;-74
2020/12/27 04:44:58;;;;;;;18.85;9.90;;;-6.30;99.90;;;;;;5032102;28;20034;-75
2020/12/27 04:47:24;;;;;;;14.82;9.38;;;-6.30;99.90;;;;;;5032361;28;20021;-74
2020/12/27 04:49:50;;;;;;;19.60;9.93;;;-6.30;99.90;;;;;;5032281;28;20052;-75
2020/12/27 04:52:20;;;;;;;18.05;9.63;;;-6.30;99.90;;;;;;5047661;28;20030;-76
2020/12/27 04:54:50;;;;;;;16.83;9.20;;;-6.30;99.90;;;;;;5035159;28;20029;-75
2020/12/27 04:57:17;;;;;;;18.77;9.48;;;-6.30;99.90;;;;;;5051404;28;20029;-75
2020/12/27 04:59:46;;;;;;;17.77;9.32;;;-6.40;99.90;;;;;;5051380;28;20026;-75
2020/12/27 05:02:13;;;;;;;14.15;8.05;;;-6.50;99.90;;;;;;5035776;28;20079;-74
2020/12/27 05:04:39;;;;;;;14.77;8.35;;;-6.50;99.90;;;;;;5051189;28;20087;-75
2020/12/27 05:07:05;;;;;;;17.55;9.18;;;-6.50;99.90;;;;;;5035773;28;20104;-75
2020/12/27 05:09:31;;;;;;;17.10;9.02;;;-6.60;99.90;;;;;;5051227;28;20029;-75
2020/12/27 05:11:57;;;;;;;17.35;8.93;;;-6.60;99.90;;;;;;5036052;28;20490;-75
2020/12/27 05:14:26;;;;;;;19.00;9.95;;;-6.50;99.90;;;;;;5034280;28;20025;-75
2020/12/27 05:16:53;;;;;;;17.63;9.75;;;-6.50;99.90;;;;;;5051018;28;20453;-75
2020/12/27 05:19:23;;;;;;;15.32;8.80;;;-6.50;99.90;;;;;;5035648;28;20034;-75
2020/12/27 05:21:48;;;;;;;14.90;8.77;;;-6.50;99.90;;;;;;5035516;28;20021;-75
2020/12/27 05:24:19;;;;;;;15.98;9.23;;;-6.50;99.90;;;;;;5035489;28;20031;-74
2020/12/27 05:26:46;;;;;;;17.58;9.80;;;-6.50;99.90;;;;;;5035574;28;20024;-75
2020/12/27 05:29:28;;;;;;;18.02;9.50;;;-6.50;99.90;;;;;;5035766;28;20106;-75
2020/12/27 05:31:53;;;;;;;16.75;9.35;;;-6.50;99.90;;;;;;5035493;28;20432;-75
2020/12/27 05:34:19;;;;;;;16.50;9.07;;;-6.50;99.90;;;;;;5035505;28;20072;-75
2020/12/27 05:36:45;;;;;;;19.65;10.25;;;-6.50;99.90;;;;;;5035244;28;20061;-75
2020/12/27 05:39:15;;;;;;;15.52;9.60;;;-6.50;99.90;;;;;;5035218;28;20476;-74
2020/12/27 05:41:40;;;;;;;17.50;9.80;;;-6.50;99.90;;;;;;5035472;28;20025;-74
2020/12/27 05:44:06;;;;;;;18.77;9.93;;;-6.50;99.90;;;;;;5050151;28;20025;-75
2020/12/27 05:46:32;;;;;;;17.30;9.10;;;-6.50;99.90;;;;;;5050247;28;20017;-74
2020/12/27 05:48:58;;;;;;;19.48;8.75;;;-6.40;99.90;;;;;;5035236;28;20026;-74
2020/12/27 05:51:25;;;;;;;18.02;9.35;;;-6.40;99.90;;;;;;5034979;28;20060;-74
2020/12/27 05:53:52;;;;;;;15.18;8.32;;;-6.40;99.90;;;;;;5034795;28;20066;-75
2020/12/27 05:56:20;;;;;;;15.20;8.77;;;-6.40;99.90;;;;;;5034901;28;20029;-75
2020/12/27 05:58:46;;;;;;;13.50;8.10;;;-6.40;99.90;;;;;;5050044;28;20480;-75
2020/12/27 06:01:22;;;;;;;15.48;8.82;;;-6.40;99.90;;;;;;5050128;28;20030;-74
2020/12/27 06:03:59;;;;;;;17.35;9.52;;;-6.50;99.90;;;;;;5034828;28;20032;-75
2020/12/27 06:07:00;;;;;;;14.30;7.35;;;-6.40;99.90;;;;;;5034063;28;20025;-76
2020/12/27 06:10:01;;;;;;;18.35;8.88;;;-6.50;99.90;;;;;;5034820;28;20112;-75
2020/12/27 06:12:57;;;;;;;14.18;7.20;;;-6.50;99.90;;;;;;5027769;28;20025;-75
2020/12/27 06:15:27;;;;;;;14.23;8.27;;;-6.40;99.90;;;;;;5033632;28;20044;-76
2020/12/27 06:17:54;;;;;;;15.38;7.97;;;-6.40;99.90;;;;;;5049925;28;20022;-75
2020/12/27 06:20:21;;;;;;;14.75;7.63;;;-6.40;99.90;;;;;;5034585;28;20017;-75
2020/12/27 06:22:49;;;;;;;18.48;9.70;;;-6.30;99.90;;;;;;5034710;28;20025;-74
2020/12/27 06:25:15;;;;;;;13.18;7.55;;;-6.20;99.90;;;;;;5049969;28;20057;-75
2020/12/27 06:27:41;;;;;;;13.88;7.90;;;-6.20;99.90;;;;;;5034790;28;20013;-75
2020/12/27 06:30:18;;;;;;;14.68;7.93;;;-6.30;99.90;;;;;;5034439;28;20056;-75
2020/12/27 06:32:48;;;;;;;14.70;7.93;;;-6.30;99.90;;;;;;5049857;28;20025;-75
2020/12/27 06:35:14;;;;;;;14.93;8.93;;;-6.30;99.90;;;;;;5034374;28;20136;-75
2020/12/27 06:37:44;;;;;;;11.88;7.30;;;-6.30;99.90;;;;;;5034341;28;20420;-75
2020/12/27 06:40:11;;;;;;;15.02;8.63;;;-6.30;99.90;;;;;;5034595;28;20376;-75
2020/12/27 06:42:37;;;;;;;14.70;7.70;;;-6.30;99.90;;;;;;5033963;28;20032;-75
2020/12/27 06:45:05;;;;;;;14.73;7.63;;;-6.30;99.90;;;;;;5033861;28;20042;-75
2020/12/27 06:47:51;;;;;;;15.85;7.50;;;-6.30;99.90;;;;;;5034003;28;20048;-75
2020/12/27 06:50:19;;;;;;;14.57;7.07;;;-6.30;99.90;;;;;;5049352;28;20025;-75
2020/12/27 06:52:45;;;;;;;13.23;7.60;;;-6.30;99.90;;;;;;5049453;28;20030;-75
2020/12/27 06:55:11;;;;;;;17.05;8.07;;;-6.20;99.90;;;;;;5033939;28;20017;-75
2020/12/27 06:57:45;;;;;;;13.60;8.38;;;-6.10;99.90;;;;;;5033940;28;20338;-75
2020/12/27 07:00:26;;;;;;;15.70;8.43;;;-6.20;99.90;;;;;;5049312;28;20018;-75
2020/12/27 07:03:21;;;;;;;12.93;7.63;;;-6.20;99.90;;;;;;5049258;28;20064;-76
2020/12/27 07:05:48;;;;;;;13.60;7.28;;;-6.20;99.90;;;;;;5033843;28;20044;-75
2020/12/27 07:08:16;;;;;;;17.55;9.43;;;-6.20;99.90;;;;;;5050908;28;20025;-75
2020/12/27 07:10:44;;;;;;;15.60;7.97;;;-6.20;99.90;;;;;;5042752;28;20065;-75
2020/12/27 07:13:15;;;;;;;19.10;9.40;;;-6.20;99.90;;;;;;5057958;28;20029;-75
2020/12/27 07:15:47;;;;;;;19.73;10.27;;;-6.10;99.90;;;;;;5041530;28;20033;-75
2020/12/27 07:18:20;;;;;;;26.15;12.10;;;-6.10;99.90;;;;;;5033400;28;20403;-75
2020/12/27 07:20:51;;;;;;;18.42;10.50;;;-6.00;99.90;;;;;;5035541;28;20033;-75
2020/12/27 07:23:19;;;;;;;17.45;9.70;;;-5.90;99.90;;;;;;5034859;28;20072;-75
2020/12/27 07:25:47;;;;;;;15.00;9.73;;;-5.90;99.90;;;;;;5034863;28;20021;-75
2020/12/27 07:28:13;;;;;;;17.35;9.18;;;-5.80;99.90;;;;;;5034564;28;20045;-75
2020/12/27 07:30:39;;;;;;;15.95;9.27;;;-5.70;99.90;;;;;;5048643;28;20045;-76
2020/12/27 07:33:10;;;;;;;18.45;9.20;;;-5.60;99.90;;;;;;5033166;28;20404;-76
2020/12/27 07:35:36;;;;;;;14.32;8.52;;;-5.50;99.90;;;;;;5048492;28;20033;-75
2020/12/27 07:38:04;;;;;;;15.60;8.55;;;-5.50;99.90;;;;;;5033147;28;20044;-75
2020/12/27 07:40:34;;;;;;;19.10;10.38;;;-5.40;99.90;;;;;;5033588;28;20021;-75
2020/12/27 07:43:01;;;;;;;19.33;10.70;;;-5.30;99.90;;;;;;5048314;28;20022;-76
2020/12/27 07:45:27;;;;;;;14.65;8.80;;;-5.20;99.90;;;;;;5033221;28;20056;-76
2020/12/27 07:47:53;;;;;;;14.40;8.13;;;-5.10;99.90;;;;;;5031894;28;20048;-75
2020/12/27 07:50:19;;;;;;;18.10;8.77;;;-5.00;99.90;;;;;;5033303;28;20028;-75
2020/12/27 07:52:47;;;;;;;18.92;10.95;;;-4.90;99.90;;;;;;5033930;28;20398;-76
2020/12/27 07:55:39;;;;;;;16.95;9.45;;;-4.80;99.90;;;;;;5031755;28;20507;-76
2020/12/27 07:58:06;;;;;;;15.10;8.57;;;-4.70;99.90;;;;;;5031785;28;20028;-75
2020/12/27 08:00:36;;;;;;;15.65;8.75;;;-4.60;99.90;;;;;;5032947;28;20021;-76
2020/12/27 08:03:06;;;;;;;10.88;8.10;;;-4.50;99.90;;;;;;5048444;28;20029;-76
2020/12/27 08:05:32;;;;;;;17.42;7.88;;;-4.50;99.90;;;;;;5033074;28;20100;-76
2020/12/27 08:08:10;;;;;;;12.27;7.13;;;-4.40;99.90;;;;;;5048307;28;20095;-75
2020/12/27 08:10:35;;;;;;;13.38;7.60;;;-4.40;99.90;;;;;;5033020;28;20022;-75
2020/12/27 08:13:03;;;;;;;12.85;8.20;;;-4.30;99.90;;;;;;5033255;28;20017;-76
2020/12/27 08:15:30;;;;;;;14.40;8.15;;;-4.20;99.90;;;;;;5032963;28;20126;-76
2020/12/27 08:18:00;;;;;;;15.80;7.90;;;-4.10;99.90;;;;;;5032884;28;20025;-75
2020/12/27 08:20:28;;;;;;;13.73;7.97;;;-4.10;99.90;;;;;;5048135;28;20322;-76
2020/12/27 08:23:01;;;;;;;14.57;8.30;;;-4.00;99.90;;;;;;5032534;28;20022;-75
2020/12/27 08:25:28;;;;;;;15.75;8.75;;;-3.90;99.90;;;;;;5031517;28;20415;-75
2020/12/27 08:27:58;;;;;;;16.02;8.02;;;-3.80;99.90;;;;;;5032998;28;20026;-75
2020/12/27 08:30:25;;;;;;;13.85;7.72;;;-3.60;99.90;;;;;;5052554;28;20053;-76
2020/12/27 08:33:09;;;;;;;14.65;8.45;;;-3.50;99.90;;;;;;5036852;28;20079;-77
2020/12/27 08:35:35;;;;;;;13.27;8.32;;;-3.30;99.90;;;;;;5052310;28;20032;-75
2020/12/27 08:38:19;;;;;;;14.27;7.07;;;-3.20;99.90;;;;;;5036622;28;20400;-76
2020/12/27 08:40:47;;;;;;;11.80;6.43;;;-3.10;99.90;;;;;;5036747;28;20436;-76
2020/12/27 08:43:29;;;;;;;11.90;7.43;;;-3.00;99.90;;;;;;5036250;28;20021;-76
2020/12/27 08:45:58;;;;;;;15.20;8.25;;;-2.70;99.90;;;;;;5036761;28;20028;-76
2020/12/27 08:48:32;;;;;;;35.95;16.95;;;-1.90;99.90;;;;;;5036928;28;20064;-76
2020/12/27 08:51:02;;;;;;;15.45;8.05;;;1.70;99.90;;;;;;5051697;28;20107;-76
2020/12/27 08:53:28;;;;;;;11.30;6.28;;;5.60;99.90;;;;;;5051540;28;20029;-76
2020/12/27 08:55:57;;;;;;;11.10;7.20;;;8.90;99.90;;;;;;5036111;28;20025;-76
2020/12/27 08:58:23;;;;;;;10.38;5.90;;;12.10;80.70;;;;;;5036604;28;20021;-77
2020/12/27 09:00:48;;;;;;;5.60;3.65;;;15.40;53.20;;;;;;5036323;28;20447;-77
2020/12/27 09:03:14;;;;;;;5.38;4.07;;;17.50;43.10;;;;;;5052070;28;20032;-77
2020/12/27 09:05:40;;;;;;;5.05;3.80;;;18.60;37.90;;;;;;5038558;28;20032;-77
2020/12/27 09:08:17;;;;;;;5.18;3.95;;;20.00;34.80;;;;;;5036721;28;20037;-77
2020/12/27 09:10:43;;;;;;;5.90;3.88;;;20.90;33.50;;;;;;5035456;28;20032;-77
2020/12/27 09:13:10;;;;;;;5.07;4.47;;;22.00;31.10;;;;;;5038262;28;20021;-78
2020/12/27 09:15:43;;;;;;;5.53;3.80;;;23.30;29.20;;;;;;5038494;28;20024;-78
2020/12/27 09:18:11;;;;;;;5.30;4.22;;;24.00;28.00;;;;;;5053585;28;20158;-77
2020/12/27 09:20:39;;;;;;;6.22;4.15;;;25.10;26.50;;;;;;5036486;28;20075;-75
2020/12/27 09:23:14;;;;;;;6.40;5.20;;;25.20;26.10;;;;;;5051870;28;20026;-75
2020/12/27 09:25:41;;;;;;;5.68;4.60;;;24.60;25.00;;;;;;5035703;28;20021;-75
2020/12/27 09:28:16;;;;;;;6.80;5.20;;;22.20;26.50;;;;;;5036559;28;20056;-77
2020/12/27 09:30:44;;;;;;;6.90;4.72;;;21.30;29.00;;;;;;5051265;28;20018;-77
2020/12/27 09:33:10;;;;;;;6.70;5.15;;;21.20;28.40;;;;;;5036747;28;20470;-77
2020/12/27 09:35:35;;;;;;;8.75;5.80;;;20.50;29.10;;;;;;5035460;28;20048;-74
2020/12/27 09:38:01;;;;;;;6.10;4.93;;;21.00;29.40;;;;;;5050827;28;20052;-75
2020/12/27 09:40:27;;;;;;;6.78;5.90;;;20.60;29.20;;;;;;5049574;28;20534;-74
2020/12/27 09:43:04;;;;;;;6.78;5.45;;;20.10;29.90;;;;;;5035559;28;20499;-75
2020/12/27 09:45:31;;;;;;;7.40;6.03;;;20.80;29.10;;;;;;5083112;22;20045;-77
2020/12/27 09:48:03;;;;;;;7.50;6.45;;;21.30;28.70;;;;;;5071247;28;20064;-77
2020/12/27 09:50:30;;;;;;;7.50;6.70;;;18.90;29.50;;;;;;5055289;28;20063;-77
2020/12/27 09:52:56;;;;;;;7.32;6.53;;;21.00;28.90;;;;;;5054989;28;20049;-77
2020/12/27 09:55:22;;;;;;;6.95;6.20;;;21.40;28.10;;;;;;5055096;28;20071;-77
2020/12/27 09:57:48;;;;;;;6.57;5.68;;;22.50;27.00;;;;;;5070505;28;20028;-77
2020/12/27 10:00:13;;;;;;;6.25;5.38;;;23.50;25.80;;;;;;5053716;28;20029;-77
2020/12/27 10:02:39;;;;;;;6.05;5.45;;;24.00;26.00;;;;;;5070602;28;20021;-77
2020/12/27 10:05:05;;;;;;;5.93;5.32;;;23.70;25.40;;;;;;5055946;28;20040;-77
2020/12/27 10:07:31;;;;;;;6.32;5.18;;;23.80;25.70;;;;;;5070796;28;20025;-77
2020/12/27 10:09:56;;;;;;;7.85;5.20;;;24.50;24.90;;;;;;5070551;28;20056;-77
2020/12/27 10:12:22;;;;;;;6.32;5.03;;;23.60;24.60;;;;;;5070178;28;20040;-77
2020/12/27 10:14:48;;;;;;;6.40;4.80;;;21.00;26.40;;;;;;5055175;28;20049;-77
2020/12/27 10:17:14;;;;;;;8.38;7.38;;;21.00;27.50;;;;;;5070489;28;20029;-76
2020/12/27 10:19:40;;;;;;;8.65;6.90;;;21.10;27.70;;;;;;5070288;28;20053;-77
2020/12/27 10:22:05;;;;;;;5.03;4.50;;;21.10;27.60;;;;;;5070205;28;20120;-77
2020/12/27 10:24:32;;;;;;;7.20;5.57;;;20.50;27.60;;;;;;5053893;28;20439;-77
2020/12/27 10:26:59;;;;;;;6.78;5.50;;;20.50;27.40;;;;;;5070103;28;20025;-77
2020/12/27 10:29:24;;;;;;;6.72;4.80;;;20.30;28.20;;;;;;5054590;28;20029;-77
2020/12/27 10:31:51;;;;;;;6.53;5.00;;;18.60;28.80;;;;;;5054073;28;20025;-77
2020/12/27 10:34:18;;;;;;;8.15;6.07;;;18.30;30.30;;;;;;5054460;28;20476;-76
2020/12/27 10:36:48;;;;;;;7.18;5.88;;;18.20;31.00;;;;;;5054400;28;20032;-77
2020/12/27 10:39:15;;;;;;;5.93;5.07;;;18.70;30.40;;;;;;5069819;28;20025;-77
2020/12/27 10:41:44;;;;;;;6.05;4.47;;;16.60;31.20;;;;;;5069684;28;20021;-77
2020/12/27 10:44:10;;;;;;;7.57;5.88;;;17.80;31.40;;;;;;5069359;28;20108;-77
2020/12/27 10:46:36;;;;;;;5.93;4.47;;;18.90;31.00;;;;;;5069252;28;20581;-77
2020/12/27 10:49:02;;;;;;;6.30;4.95;;;18.20;30.90;;;;;;5054130;28;20541;-77
2020/12/27 10:51:33;;;;;;;6.32;5.25;;;18.50;30.60;;;;;;5069106;28;20021;-77
2020/12/27 10:53:59;;;;;;;5.25;4.20;;;19.20;30.00;;;;;;5054220;28;20025;-77
2020/12/27 10:56:24;;;;;;;4.28;3.80;;;20.10;29.70;;;;;;5069608;28;20024;-77
2020/12/27 10:58:50;;;;;;;5.18;3.72;;;21.20;28.50;;;;;;5053981;28;20027;-77
2020/12/27 11:01:15;;;;;;;4.70;3.83;;;21.50;27.50;;;;;;5069510;28;20050;-77
2020/12/27 11:03:41;;;;;;;5.85;4.30;;;21.80;27.90;;;;;;5053808;28;20536;-77
2020/12/27 11:06:06;;;;;;;5.78;4.30;;;22.50;26.80;;;;;;5054154;28;20079;-76
2020/12/27 11:08:33;;;;;;;5.55;4.13;;;22.80;26.00;;;;;;5052816;28;20021;-77
2020/12/27 11:10:59;;;;;;;6.43;4.07;;;22.60;26.50;;;;;;5053855;28;20025;-77
2020/12/27 11:13:25;;;;;;;4.65;4.00;;;21.80;26.50;;;;;;5053477;28;20036;-77
2020/12/27 11:15:50;;;;;;;5.78;4.32;;;22.50;26.40;;;;;;5053562;28;20106;-77
2020/12/27 11:18:16;;;;;;;5.97;4.47;;;23.00;26.20;;;;;;5053580;28;20103;-77
2020/12/27 11:20:42;;;;;;;7.88;5.10;;;22.90;25.70;;;;;;5053556;28;20025;-77
2020/12/27 11:23:07;;;;;;;8.27;6.13;;;22.60;26.00;;;;;;5053573;28;20029;-77
2020/12/27 11:25:33;;;;;;;6.90;4.88;;;22.10;26.90;;;;;;5053517;28;20028;-77
2020/12/27 11:27:59;;;;;;;7.40;4.40;;;21.80;26.80;;;;;;5053673;28;20036;-77
2020/12/27 11:30:24;;;;;;;4.38;3.47;;;21.50;27.40;;;;;;5053696;28;20192;-77
2020/12/27 11:32:50;;;;;;;5.10;4.32;;;21.90;26.80;;;;;;5052110;28;20025;-77
2020/12/27 11:35:16;;;;;;;5.47;3.88;;;21.10;27.10;;;;;;5053264;28;20075;-77
2020/12/27 11:37:41;;;;;;;5.03;3.97;;;20.20;27.80;;;;;;5068646;28;20027;-76
2020/12/27 11:40:07;;;;;;;4.18;3.00;;;21.30;27.50;;;;;;5051949;28;20053;-77
2020/12/27 11:42:33;;;;;;;4.38;3.70;;;20.80;28.10;;;;;;5068546;28;20024;-77
2020/12/27 11:44:58;;;;;;;4.00;3.30;;;21.80;27.40;;;;;;5068447;28;20033;-77
2020/12/27 11:47:24;;;;;;;4.45;3.90;;;22.50;26.70;;;;;;5068524;28;20044;-76
2020/12/27 11:49:50;;;;;;;3.80;3.38;;;23.50;25.80;;;;;;5066404;28;20387;-77
2020/12/27 11:52:15;;;;;;;4.20;3.60;;;24.20;25.30;;;;;;5066310;28;20057;-77
2020/12/27 11:54:41;;;;;;;3.63;3.05;;;24.30;24.20;;;;;;5066393;28;20538;-77
2020/12/27 11:57:06;;;;;;;5.72;4.10;;;24.00;25.00;;;;;;5066452;28;20058;-77
2020/12/27 11:59:33;;;;;;;4.18;2.92;;;24.00;25.10;;;;;;5050072;28;20498;-78
2020/12/27 12:01:59;;;;;;;3.55;2.80;;;23.80;25.00;;;;;;5051370;28;20025;-78
2020/12/27 12:04:25;;;;;;;4.13;3.10;;;23.50;25.00;;;;;;5067286;28;20508;-76
2020/12/27 12:06:50;;;;;;;4.80;3.90;;;23.10;25.80;;;;;;5068512;28;20063;-77
2020/12/27 12:09:16;;;;;;;3.95;3.05;;;22.70;26.00;;;;;;5068412;28;20021;-77
2020/12/27 12:11:42;;;;;;;4.40;3.72;;;22.40;26.70;;;;;;5068296;28;20028;-77
2020/12/27 12:14:08;;;;;;;4.65;3.75;;;22.20;26.40;;;;;;5052947;28;20033;-76
2020/12/27 12:16:34;;;;;;;3.47;3.15;;;21.80;26.90;;;;;;5069045;28;20152;-77
2020/12/27 12:19:01;;;;;;;3.92;3.15;;;21.10;27.30;;;;;;5053171;28;20025;-77
2020/12/27 12:21:27;;;;;;;4.57;3.80;;;20.70;28.20;;;;;;5068139;28;20553;-77
2020/12/27 12:23:54;;;;;;;4.97;3.90;;;19.50;28.80;;;;;;5051422;28;20029;-77
2020/12/27 12:26:21;;;;;;;5.07;3.80;;;18.00;30.60;;;;;;5053050;28;20021;-77
2020/12/27 12:28:47;;;;;;;4.82;3.47;;;16.70;33.70;;;;;;5069041;28;20047;-77
2020/12/27 12:31:14;;;;;;;5.60;4.40;;;16.00;34.60;;;;;;5053059;28;20021;-77
2020/12/27 12:33:39;;;;;;;6.78;4.60;;;15.10;36.70;;;;;;5052520;28;20025;-77
2020/12/27 12:36:06;;;;;;;4.65;3.95;;;14.90;37.40;;;;;;5052580;28;20104;-76
2020/12/27 12:38:32;;;;;;;6.60;4.65;;;14.70;37.50;;;;;;5052722;28;20029;-76
2020/12/27 12:40:59;;;;;;;6.20;4.28;;;14.60;38.50;;;;;;5052501;28;20060;-76